CheckWX is a tool to help pilots better visualize weather data.  It is not intended as a substitute for an official pre-flight weather briefing.

05:22:40 UTC

KEGV METAR
Eagle River Union Airport
Eagle River, Wisconsin, USA
Current

8 mins ago

KEGV 280515Z AUTO 28006KT 10SM SCT037 M13/M17 A2992 RMK AO2 T11271167
Observed
Feb-28 @ 05:15 UTC
Wind
  • 280° at 6 KTS
Visibility
10 SM
Flight Rules
VFR
Cloud Levels
  • Scattered at 3,700' AGL
Temperature
-13°C / 9°F
Dewpoint
-17°C / 1°F
Humidity
72%
Altimeter
29.92" Hg
Pressure
1013.22 hPa
Previous

28 mins ago

KEGV 280455Z AUTO 28006KT 10SM BKN039 M12/M17 A2992 RMK AO2 T11251166
Observed
Feb-28 @ 04:55 UTC
Wind
  • 280° at 6 KTS
Visibility
10 SM
Flight Rules
VFR
Cloud Levels
  • Broken at 3,900' AGL
Temperature
-13°C / 9°F
Dewpoint
-17°C / 1°F
Humidity
72%
Altimeter
29.92" Hg
Pressure
1013.22 hPa
Previous

48 mins ago

KEGV 280435Z AUTO 29006KT 10SM BKN039 M12/M17 A2993 RMK AO2 T11231166
Observed
Feb-28 @ 04:35 UTC
Wind
  • 290° at 6 KTS
Visibility
10 SM
Flight Rules
VFR
Cloud Levels
  • Broken at 3,900' AGL
Temperature
-12°C / 10°F
Dewpoint
-17°C / 1°F
Humidity
67%
Altimeter
29.93" Hg
Pressure
1013.52 hPa